createdAt,value
2022-12-25T00:01:22.367Z,16.08
2022-12-25T00:03:49.444Z,21.92
2022-12-25T00:06:15.901Z,18.88
2022-12-25T00:08:42.321Z,22.10
2022-12-25T00:11:14.210Z,18.15
2022-12-25T00:13:41.028Z,22.98
2022-12-25T00:16:09.652Z,15.35
2022-12-25T00:18:36.231Z,25.98
2022-12-25T00:21:05.636Z,23.00
2022-12-25T00:23:32.499Z,18.70
2022-12-25T00:25:58.945Z,23.33
2022-12-25T00:28:25.876Z,21.77
2022-12-25T00:30:52.413Z,26.65
2022-12-25T00:33:19.035Z,23.02
2022-12-25T00:35:45.548Z,26.13
2022-12-25T00:38:11.918Z,19.30
2022-12-25T00:40:43.057Z,21.88
2022-12-25T00:43:09.983Z,15.05
2022-12-25T00:45:36.449Z,19.33
2022-12-25T00:48:03.033Z,24.05
2022-12-25T00:50:29.483Z,21.17
2022-12-25T00:52:55.797Z,19.52
2022-12-25T00:55:22.131Z,20.27
2022-12-25T00:57:48.519Z,25.30
2022-12-25T01:00:15.440Z,22.13
2022-12-25T01:02:41.896Z,22.55
2022-12-25T01:08:18.719Z,18.27
2022-12-25T01:10:45.055Z,22.83
2022-12-25T01:13:11.407Z,21.63
2022-12-25T01:15:37.715Z,20.65
2022-12-25T01:18:07.776Z,19.63
2022-12-25T01:20:35.162Z,21.23
2022-12-25T01:23:01.520Z,23.77
2022-12-25T01:25:27.873Z,23.92
2022-12-25T01:27:54.296Z,25.15
2022-12-25T01:30:20.670Z,17.83
2022-12-25T01:32:47.001Z,28.27
2022-12-25T01:35:13.407Z,21.50
2022-12-25T01:37:39.731Z,21.90
2022-12-25T01:40:07.128Z,21.40
2022-12-25T01:42:33.648Z,22.20
2022-12-25T01:45:27.423Z,17.55
2022-12-25T01:47:53.820Z,17.52
2022-12-25T01:50:20.878Z,14.25
2022-12-25T01:52:48.132Z,17.77
2022-12-25T01:55:14.961Z,17.75
2022-12-25T01:57:43.031Z,11.77
2022-12-25T02:00:10.806Z,18.05
2022-12-25T02:02:37.666Z,19.42
2022-12-25T02:05:11.988Z,16.77
2022-12-25T02:07:42.939Z,15.63
2022-12-25T02:10:10.838Z,13.35
2022-12-25T02:12:38.503Z,18.73
2022-12-25T02:15:15.389Z,14.27
2022-12-25T02:18:02.786Z,15.80
2022-12-25T02:20:44.273Z,13.77
2022-12-25T02:23:28.884Z,12.82
2022-12-25T02:26:16.928Z,18.88
2022-12-25T02:28:50.134Z,16.20
2022-12-25T02:31:36.455Z,12.63
2022-12-25T02:34:11.524Z,12.88
2022-12-25T02:36:48.932Z,15.02
2022-12-25T02:39:44.247Z,15.90
2022-12-25T02:42:16.487Z,14.80
2022-12-25T02:45:06.053Z,14.90
2022-12-25T02:47:53.045Z,14.65
2022-12-25T02:50:39.289Z,16.25
2022-12-25T02:53:27.680Z,13.35
2022-12-25T02:56:14.655Z,19.15
2022-12-25T02:59:01.556Z,14.68
2022-12-25T03:01:51.382Z,13.52
2022-12-25T03:04:41.571Z,15.50
2022-12-25T03:07:15.791Z,12.88
2022-12-25T03:10:21.521Z,14.73
2022-12-25T03:13:04.109Z,13.40
2022-12-25T03:15:51.469Z,17.75
2022-12-25T03:18:22.266Z,15.50
2022-12-25T03:21:07.308Z,10.70
2022-12-25T03:23:53.730Z,16.43
2022-12-25T03:26:38.536Z,12.80
2022-12-25T03:29:04.925Z,13.52
2022-12-25T03:31:45.291Z,13.75
2022-12-25T03:34:35.922Z,15.18
2022-12-25T03:37:45.634Z,12.82
2022-12-25T03:40:51.271Z,12.50
2022-12-25T03:43:57.066Z,12.13
2022-12-25T03:46:55.850Z,11.73
2022-12-25T03:49:48.718Z,12.55
2022-12-25T03:52:37.433Z,10.52
2022-12-25T03:55:26.953Z,17.05
2022-12-25T03:58:11.935Z,15.45
2022-12-25T04:00:56.675Z,11.77
2022-12-25T04:03:41.576Z,9.68
2022-12-25T04:06:26.317Z,13.88
2022-12-25T04:09:11.168Z,9.23
2022-12-25T04:12:02.027Z,12.68
2022-12-25T04:14:48.148Z,12.25
2022-12-25T04:17:32.991Z,14.00
2022-12-25T04:20:17.761Z,14.35
2022-12-25T04:23:02.541Z,12.60
2022-12-25T04:25:47.461Z,12.40
2022-12-25T04:28:32.121Z,14.60
2022-12-25T04:31:20.162Z,13.65
2022-12-25T04:34:04.979Z,9.57
2022-12-25T04:36:31.367Z,17.23
2022-12-25T04:38:57.701Z,13.15
2022-12-25T04:41:24.099Z,14.18
2022-12-25T04:43:50.464Z,13.02
2022-12-25T04:46:16.837Z,11.35
2022-12-25T04:48:43.243Z,16.90
2022-12-25T04:51:21.084Z,13.27
2022-12-25T04:53:48.933Z,15.57
2022-12-25T04:56:16.472Z,9.38
2022-12-25T04:58:43.164Z,12.02
2022-12-25T05:01:10.664Z,9.38
2022-12-25T05:03:37.590Z,11.68
2022-12-25T05:06:05.339Z,11.27
2022-12-25T05:08:34.026Z,11.68
2022-12-25T05:11:04.492Z,9.80
2022-12-25T05:13:31.723Z,10.68
2022-12-25T05:15:58.172Z,9.85
2022-12-25T05:18:24.750Z,9.40
2022-12-25T05:20:53.179Z,8.85
2022-12-25T05:23:19.781Z,12.55
2022-12-25T05:25:46.202Z,8.85
2022-12-25T05:28:12.534Z,13.23
2022-12-25T05:30:39.419Z,10.18
2022-12-25T05:33:05.872Z,7.50
2022-12-25T05:35:32.379Z,9.60
2022-12-25T05:37:58.713Z,7.95
2022-12-25T05:40:25.122Z,9.10
2022-12-25T05:42:51.448Z,7.43
2022-12-25T05:45:17.936Z,9.20
2022-12-25T05:47:44.300Z,9.02
2022-12-25T05:50:10.955Z,6.35
2022-12-25T05:52:37.413Z,8.63
2022-12-25T05:55:03.965Z,9.68
2022-12-25T05:57:31.777Z,6.53
2022-12-25T05:59:58.164Z,7.68
2022-12-25T06:02:25.364Z,8.48
2022-12-25T06:04:51.898Z,11.73
2022-12-25T06:07:18.196Z,9.65
2022-12-25T06:09:44.583Z,15.07
2022-12-25T06:12:10.920Z,8.93
2022-12-25T06:14:37.235Z,9.75
2022-12-25T06:17:03.701Z,9.05
2022-12-25T06:19:30.208Z,8.73
2022-12-25T06:21:56.581Z,11.18
2022-12-25T06:24:23.614Z,10.15
2022-12-25T06:26:50.200Z,11.52
2022-12-25T06:29:16.596Z,7.70
2022-12-25T06:31:43.034Z,8.60
2022-12-25T06:34:10.121Z,17.08
2022-12-25T06:36:38.391Z,10.13
2022-12-25T06:39:04.786Z,10.38
2022-12-25T06:41:31.322Z,8.07
2022-12-25T06:44:00.226Z,11.05
2022-12-25T06:46:29.177Z,9.48
2022-12-25T06:48:56.861Z,6.53
2022-12-25T06:51:25.973Z,8.90
2022-12-25T06:53:53.284Z,13.32
2022-12-25T06:56:22.242Z,11.73
2022-12-25T06:58:50.854Z,12.23
2022-12-25T07:01:21.179Z,9.15
2022-12-25T07:03:51.571Z,10.25
2022-12-25T07:06:17.959Z,8.60
2022-12-25T07:08:44.349Z,12.98
2022-12-25T07:11:10.849Z,11.60
2022-12-25T07:13:37.182Z,7.28
2022-12-25T07:16:05.227Z,11.82
2022-12-25T07:18:32.162Z,10.77
2022-12-25T07:21:01.186Z,10.80
2022-12-25T07:23:27.516Z,6.80
2022-12-25T07:25:55.429Z,8.48
2022-12-25T07:28:21.835Z,8.13
2022-12-25T07:30:48.239Z,11.27
2022-12-25T07:33:14.928Z,10.70
2022-12-25T07:35:41.476Z,8.98
2022-12-25T07:38:08.080Z,10.27
2022-12-25T07:40:35.395Z,10.95
2022-12-25T07:43:01.794Z,9.15
2022-12-25T07:45:28.183Z,9.65
2022-12-25T07:47:55.241Z,7.25
2022-12-25T07:50:21.806Z,9.75
2022-12-25T07:52:48.082Z,8.82
2022-12-25T07:55:14.508Z,9.20
2022-12-25T07:57:40.913Z,9.43
2022-12-25T08:00:07.831Z,9.43
2022-12-25T08:08:15.698Z,12.35
2022-12-25T08:10:48.595Z,15.60
2022-12-25T08:13:14.986Z,7.55
2022-12-25T08:15:41.965Z,10.20
2022-12-25T08:18:08.364Z,12.50
2022-12-25T08:20:35.050Z,11.45
2022-12-25T08:23:01.477Z,14.45
2022-12-25T08:25:27.876Z,8.32
2022-12-25T08:27:54.273Z,9.57
2022-12-25T08:30:20.618Z,9.68
2022-12-25T08:32:47.002Z,8.93
2022-12-25T08:35:13.380Z,9.02
2022-12-25T08:37:39.956Z,8.00
2022-12-25T08:40:06.845Z,8.77
2022-12-25T08:42:33.127Z,9.98
2022-12-25T08:44:59.483Z,12.57
2022-12-25T08:47:25.812Z,9.30
2022-12-25T08:49:52.136Z,8.68
2022-12-25T08:52:18.505Z,9.43
2022-12-25T08:54:46.977Z,8.20
2022-12-25T08:57:13.278Z,13.48
2022-12-25T08:59:39.589Z,9.25
2022-12-25T09:02:06.310Z,7.28
2022-12-25T09:04:32.750Z,7.43
2022-12-25T09:07:00.166Z,13.02
2022-12-25T09:09:28.029Z,9.95
2022-12-25T09:11:54.542Z,7.82
2022-12-25T09:14:21.399Z,10.68
2022-12-25T09:16:50.260Z,9.43
2022-12-25T09:19:16.616Z,8.50
2022-12-25T09:21:42.947Z,7.97
2022-12-25T09:24:09.308Z,9.50
2022-12-25T09:26:36.962Z,8.73
2022-12-25T09:29:03.321Z,10.63
2022-12-25T09:31:30.371Z,8.60
2022-12-25T09:33:58.083Z,8.40
2022-12-25T09:36:25.004Z,8.57
2022-12-25T09:38:51.493Z,10.07
2022-12-25T09:41:29.722Z,9.88
2022-12-25T09:44:09.960Z,7.35
2022-12-25T09:46:43.551Z,10.23
2022-12-25T09:49:16.315Z,8.02
2022-12-25T09:51:45.437Z,7.22
2022-12-25T09:54:27.253Z,9.73
2022-12-25T09:56:53.605Z,9.10
2022-12-25T09:59:27.191Z,9.75
2022-12-25T10:02:24.890Z,7.50
2022-12-25T10:05:17.958Z,9.65
2022-12-25T10:07:53.182Z,9.18
2022-12-25T10:10:46.685Z,10.50
2022-12-25T10:13:49.299Z,13.25
2022-12-25T10:16:37.535Z,7.80
2022-12-25T10:19:13.049Z,7.97
2022-12-25T10:21:39.546Z,10.55
2022-12-25T10:24:10.255Z,8.98
2022-12-25T10:26:36.585Z,7.72
2022-12-25T10:29:13.061Z,8.30
2022-12-25T10:31:40.197Z,10.45
2022-12-25T10:34:07.016Z,9.60
2022-12-25T10:36:33.480Z,6.88
2022-12-25T10:38:59.927Z,9.10
2022-12-25T10:41:26.282Z,11.13
2022-12-25T10:43:57.455Z,9.43
2022-12-25T10:46:28.758Z,8.30
2022-12-25T10:48:58.718Z,9.38
2022-12-25T10:51:34.334Z,9.15
2022-12-25T10:54:20.525Z,10.55
2022-12-25T10:57:13.128Z,8.05
2022-12-25T10:59:47.732Z,9.55
2022-12-25T11:02:21.731Z,6.13
2022-12-25T11:04:48.593Z,8.88
2022-12-25T11:07:25.597Z,8.13
2022-12-25T11:10:05.762Z,8.40
2022-12-25T11:12:37.230Z,6.65
2022-12-25T11:15:26.208Z,9.63
2022-12-25T11:17:52.498Z,9.07
2022-12-25T11:20:20.165Z,9.30
2022-12-25T11:22:47.877Z,7.20
2022-12-25T11:25:20.925Z,6.32
2022-12-25T11:27:57.136Z,7.22
2022-12-25T11:30:23.597Z,10.68
2022-12-25T11:32:55.493Z,7.18
2022-12-25T11:35:27.654Z,8.18
2022-12-25T11:37:54.133Z,9.27
2022-12-25T11:40:34.613Z,11.18
2022-12-25T11:43:17.350Z,12.10
2022-12-25T11:45:52.312Z,9.73
2022-12-25T11:48:28.090Z,7.35
2022-12-25T11:50:59.189Z,8.45
2022-12-25T11:53:31.708Z,7.03
2022-12-25T11:56:02.120Z,7.78
2022-12-25T11:58:36.059Z,9.38
2022-12-25T12:01:09.044Z,9.38
2022-12-25T12:03:38.476Z,7.75
2022-12-25T12:06:25.777Z,7.60
2022-12-25T12:09:01.494Z,7.05
2022-12-25T12:11:43.598Z,7.15
2022-12-25T12:14:28.718Z,7.25
2022-12-25T12:16:55.225Z,8.27
2022-12-25T12:19:26.824Z,7.60
2022-12-25T12:21:55.922Z,6.93
2022-12-25T12:24:25.167Z,5.93
2022-12-25T12:27:19.273Z,9.30
2022-12-25T12:29:50.920Z,12.10
2022-12-25T12:32:44.806Z,7.82
2022-12-25T12:35:18.925Z,5.47
2022-12-25T12:37:51.045Z,7.63
2022-12-25T12:40:37.186Z,6.85
2022-12-25T12:43:06.168Z,8.40
2022-12-25T12:45:36.159Z,10.07
2022-12-25T12:48:14.595Z,6.05
2022-12-25T12:50:41.964Z,7.20
2022-12-25T12:53:23.700Z,9.27
2022-12-25T12:55:51.489Z,6.13
2022-12-25T12:58:34.943Z,9.05
2022-12-25T13:01:17.020Z,7.43
2022-12-25T13:03:57.846Z,6.13
2022-12-25T13:06:26.851Z,7.90
2022-12-25T13:09:25.408Z,8.57
2022-12-25T13:11:52.122Z,6.88
2022-12-25T13:14:21.477Z,6.90
2022-12-25T13:16:51.203Z,5.78
2022-12-25T13:19:23.479Z,6.15
2022-12-25T13:22:01.696Z,7.68
2022-12-25T13:24:30.952Z,7.13
2022-12-25T13:26:58.659Z,6.38
2022-12-25T13:29:32.229Z,5.93
2022-12-25T13:32:00.256Z,7.03
2022-12-25T13:34:32.668Z,9.35
2022-12-25T13:37:01.804Z,7.25
2022-12-25T13:39:28.489Z,7.07
2022-12-25T13:42:09.441Z,7.38
2022-12-25T13:44:44.440Z,6.63
2022-12-25T13:47:16.979Z,7.10
2022-12-25T13:49:43.365Z,5.57
2022-12-25T13:52:16.224Z,6.63
2022-12-25T13:55:01.168Z,6.72
2022-12-25T13:57:34.328Z,9.70
2022-12-25T14:00:01.560Z,7.03
2022-12-25T14:02:35.942Z,6.60
2022-12-25T14:05:03.447Z,7.72
2022-12-25T14:07:29.878Z,7.38
2022-12-25T14:09:59.916Z,6.07
2022-12-25T14:12:28.952Z,5.18
2022-12-25T14:14:56.889Z,6.05
2022-12-25T14:17:23.912Z,5.63
2022-12-25T14:20:05.729Z,5.85
2022-12-25T14:22:35.934Z,6.53
2022-12-25T14:25:02.363Z,5.97
2022-12-25T14:27:30.395Z,5.82
2022-12-25T14:29:58.982Z,7.47
2022-12-25T14:32:28.427Z,7.55
2022-12-25T14:34:58.612Z,6.72
2022-12-25T14:37:30.807Z,9.27
2022-12-25T14:40:03.226Z,6.60
2022-12-25T14:42:33.221Z,7.03
2022-12-25T14:45:26.425Z,6.60
2022-12-25T14:47:55.346Z,7.10
2022-12-25T14:50:43.699Z,7.03
2022-12-25T14:53:22.605Z,6.45
2022-12-25T14:55:51.875Z,7.50
2022-12-25T14:58:29.697Z,7.30
2022-12-25T15:00:58.518Z,8.25
2022-12-25T15:03:35.328Z,6.95
2022-12-25T15:06:07.064Z,6.30
2022-12-25T15:08:34.940Z,8.90
2022-12-25T15:11:03.042Z,5.75
2022-12-25T15:13:31.239Z,6.10
2022-12-25T15:16:03.029Z,6.75
2022-12-25T15:18:38.925Z,5.55
2022-12-25T15:21:05.507Z,5.95
2022-12-25T15:23:31.908Z,5.70
2022-12-25T15:25:58.279Z,8.48
2022-12-25T15:28:24.653Z,5.68
2022-12-25T15:30:51.009Z,5.78
2022-12-25T15:33:18.876Z,6.60
2022-12-25T15:35:45.599Z,5.82
2022-12-25T15:38:13.191Z,7.60
2022-12-25T15:40:40.705Z,7.03
2022-12-25T15:43:14.569Z,8.48
2022-12-25T15:45:53.815Z,5.72
2022-12-25T15:48:20.225Z,6.85
2022-12-25T15:50:46.716Z,6.10
2022-12-25T15:53:13.200Z,6.22
2022-12-25T15:55:39.807Z,6.55
2022-12-25T15:58:06.109Z,4.88
2022-12-25T16:00:32.463Z,8.20
2022-12-25T16:02:59.220Z,6.40
2022-12-25T16:05:26.626Z,7.55
2022-12-25T16:07:53.010Z,6.88
2022-12-25T16:10:20.321Z,8.52
2022-12-25T16:12:47.176Z,7.25
2022-12-25T16:15:15.233Z,9.32
2022-12-25T16:17:41.598Z,7.93
2022-12-25T16:20:09.128Z,11.38
2022-12-25T16:22:39.792Z,9.27
2022-12-25T16:25:13.130Z,10.18
2022-12-25T16:27:39.446Z,9.13
2022-12-25T16:30:06.889Z,8.98
2022-12-25T16:32:33.305Z,10.88
2022-12-25T16:34:59.693Z,9.25
2022-12-25T16:37:27.087Z,7.10
2022-12-25T16:39:53.377Z,8.50
2022-12-25T16:42:19.669Z,7.72
2022-12-25T16:44:46.092Z,7.35
2022-12-25T16:47:12.404Z,11.60
2022-12-25T16:49:38.727Z,8.00
2022-12-25T16:52:05.123Z,10.18
2022-12-25T16:54:31.402Z,10.80
2022-12-25T16:56:57.789Z,9.57
2022-12-25T16:59:24.115Z,13.15
2022-12-25T17:01:50.589Z,17.05
2022-12-25T17:04:17.018Z,16.15
2022-12-25T17:06:43.452Z,11.93
2022-12-25T17:09:10.525Z,10.68
2022-12-25T17:11:36.921Z,9.10
2022-12-25T17:14:04.233Z,9.20
2022-12-25T17:16:34.031Z,11.02
2022-12-25T17:19:08.114Z,6.78
2022-12-25T17:21:35.047Z,7.53
2022-12-25T17:24:03.969Z,6.63
2022-12-25T17:26:32.136Z,11.50
2022-12-25T17:28:59.145Z,11.30
2022-12-25T17:31:26.016Z,10.30
2022-12-25T17:33:52.564Z,11.40
2022-12-25T17:36:21.137Z,12.80
2022-12-25T17:38:48.463Z,8.82
2022-12-25T17:41:17.108Z,8.43
2022-12-25T17:43:45.562Z,14.25
2022-12-25T17:46:20.895Z,10.80
2022-12-25T17:48:49.810Z,8.25
2022-12-25T17:51:18.691Z,8.32
2022-12-25T17:53:47.985Z,7.97
2022-12-25T17:56:15.551Z,9.52
2022-12-25T17:58:42.263Z,12.52
2022-12-25T18:01:14.011Z,11.43
2022-12-25T18:03:40.800Z,11.07
2022-12-25T18:06:09.934Z,10.32
2022-12-25T18:08:39.649Z,10.70
2022-12-25T18:11:15.030Z,10.35
2022-12-25T18:13:44.675Z,10.20
2022-12-25T18:16:12.444Z,8.27
2022-12-25T18:18:39.656Z,9.48
2022-12-25T18:21:07.319Z,9.82
2022-12-25T18:23:35.028Z,8.57
2022-12-25T18:26:06.587Z,10.68
2022-12-25T18:28:33.419Z,10.63
2022-12-25T18:30:59.879Z,10.63
2022-12-25T18:33:26.555Z,11.15
2022-12-25T18:35:58.943Z,9.82
2022-12-25T18:38:27.427Z,8.82
2022-12-25T18:40:53.873Z,12.15
2022-12-25T18:43:20.752Z,12.88
2022-12-25T18:46:07.597Z,8.73
2022-12-25T18:48:35.265Z,10.93
2022-12-25T18:51:04.133Z,8.93
2022-12-25T18:53:31.385Z,8.68
2022-12-25T18:56:11.081Z,11.30
2022-12-25T18:58:38.242Z,8.27
2022-12-25T19:01:14.800Z,9.63
2022-12-25T19:03:41.521Z,8.57
2022-12-25T19:06:08.021Z,10.88
2022-12-25T19:08:34.341Z,12.98
2022-12-25T19:11:00.834Z,10.35
2022-12-25T19:13:27.217Z,10.60
2022-12-25T19:15:58.259Z,10.75
2022-12-25T19:18:24.755Z,8.98
2022-12-25T19:20:51.082Z,10.07
2022-12-25T19:23:17.400Z,11.15
2022-12-25T19:25:43.706Z,14.02
2022-12-25T19:28:10.044Z,10.55
2022-12-25T19:30:38.447Z,8.82
2022-12-25T19:33:07.385Z,7.85
2022-12-25T19:35:39.272Z,9.85
2022-12-25T19:38:05.614Z,8.25
2022-12-25T19:40:35.697Z,12.27
2022-12-25T19:43:02.258Z,10.77
2022-12-25T19:45:28.578Z,9.25
2022-12-25T19:47:55.885Z,13.48
2022-12-25T19:50:22.220Z,9.07
2022-12-25T19:52:48.496Z,9.98
2022-12-25T19:55:14.872Z,10.80
2022-12-25T19:57:41.245Z,8.80
2022-12-25T20:00:08.149Z,11.73
2022-12-25T20:02:34.616Z,10.80
2022-12-25T20:05:01.009Z,10.68
2022-12-25T20:07:27.323Z,9.18
2022-12-25T20:09:53.658Z,8.77
2022-12-25T20:12:20.153Z,9.23
2022-12-25T20:14:46.632Z,10.70
2022-12-25T20:17:16.025Z,11.30
2022-12-25T20:19:42.687Z,8.60
2022-12-25T20:22:08.977Z,8.40
2022-12-25T20:24:35.354Z,10.57
2022-12-25T20:27:01.713Z,7.80
2022-12-25T20:29:28.078Z,10.82
2022-12-25T20:31:54.453Z,9.13
2022-12-25T20:34:20.857Z,6.07
2022-12-25T20:36:49.072Z,8.38
2022-12-25T20:39:15.439Z,8.23
2022-12-25T20:41:41.799Z,7.78
2022-12-25T20:44:09.864Z,6.35
2022-12-25T20:46:36.734Z,9.43
2022-12-25T20:49:03.503Z,9.82
2022-12-25T20:51:30.096Z,8.23
2022-12-25T20:53:56.633Z,8.30
2022-12-25T20:56:25.012Z,6.18
2022-12-25T20:58:59.673Z,9.20
2022-12-25T21:01:27.667Z,7.60
2022-12-25T21:03:55.054Z,9.18
2022-12-25T21:06:22.888Z,9.75
2022-12-25T21:08:49.449Z,8.18
2022-12-25T21:11:16.680Z,8.25
2022-12-25T21:13:45.301Z,7.75
2022-12-25T21:16:14.704Z,9.18
2022-12-25T21:18:41.389Z,7.50
2022-12-25T21:21:08.899Z,8.75
2022-12-25T21:23:37.941Z,9.10
2022-12-25T21:26:10.826Z,6.65
2022-12-25T21:28:37.261Z,8.32
2022-12-25T21:31:05.578Z,9.55
2022-12-25T21:33:51.572Z,7.95
2022-12-25T21:39:04.843Z,10.07
2022-12-25T21:41:32.995Z,7.25
2022-12-25T21:44:00.000Z,7.18
2022-12-25T21:46:27.519Z,6.03
2022-12-25T21:48:54.680Z,5.97
2022-12-25T21:51:42.839Z,6.78
2022-12-25T21:54:10.076Z,8.13
2022-12-25T21:56:44.121Z,6.68
2022-12-25T21:59:16.055Z,7.53
2022-12-25T22:01:43.095Z,7.30
2022-12-25T22:04:09.996Z,7.47
2022-12-25T22:06:55.239Z,7.60
2022-12-25T22:09:21.858Z,8.27
2022-12-25T22:12:06.823Z,7.15
2022-12-25T22:14:56.865Z,7.25
2022-12-25T22:17:48.009Z,7.07
2022-12-25T22:20:17.368Z,8.75
2022-12-25T22:22:44.463Z,7.60
2022-12-25T22:25:11.809Z,6.50
2022-12-25T22:27:39.470Z,6.57
2022-12-25T22:30:11.515Z,5.95
2022-12-25T22:32:38.128Z,5.75
2022-12-25T22:35:05.042Z,5.80
2022-12-25T22:37:32.157Z,5.32
2022-12-25T22:40:00.593Z,5.88
2022-12-25T22:42:27.105Z,6.20
2022-12-25T22:44:53.453Z,9.43
2022-12-25T22:47:19.853Z,5.38
2022-12-25T22:49:46.233Z,6.13
2022-12-25T22:52:12.618Z,4.38
2022-12-25T22:54:39.099Z,4.63
2022-12-25T22:57:05.790Z,3.95
2022-12-25T22:59:32.930Z,5.80
2022-12-25T23:02:00.333Z,5.95
2022-12-25T23:04:27.861Z,4.28
2022-12-25T23:06:54.220Z,6.45
2022-12-25T23:09:27.306Z,4.68
2022-12-25T23:11:55.434Z,4.82
2022-12-25T23:14:40.643Z,6.43
2022-12-25T23:17:30.867Z,5.50
2022-12-25T23:20:17.084Z,3.85
2022-12-25T23:23:02.531Z,4.45
2022-12-25T23:25:48.359Z,4.65
2022-12-25T23:28:14.787Z,6.65
2022-12-25T23:30:41.077Z,4.40
2022-12-25T23:33:07.417Z,4.65
2022-12-25T23:35:33.891Z,4.70
2022-12-25T23:38:00.219Z,4.00
2022-12-25T23:40:26.684Z,4.63
2022-12-25T23:42:53.009Z,5.18
2022-12-25T23:45:19.287Z,4.85
2022-12-25T23:47:45.589Z,6.15
2022-12-25T23:50:11.940Z,5.63
2022-12-25T23:52:38.292Z,6.15
2022-12-25T23:55:05.053Z,5.03
2022-12-25T23:57:31.392Z,6.28
2022-12-25T23:59:57.712Z,5.05
